PWSweather.com
Personal Weather Stations
Station Observations
KC4KQE
Superstition Mountains, Apache Junction, AZ 85119

Superstition MountainsApache Junction, AZ 85119

Lat: 33.41578, Lon: -111.49328

Elevation: 1850

Station Type: Davis Vantage Pro2 Plus

http://kc4kqe.org/

Latest ConditionsUpdated 5:20:05 AM MST Thursday, Jun 29, 2017
Currently Today's Max Today's Min Today's Average
Temperature 82.0°F27.8°C 88.2°F31.2°C 82.0°F27.8°C 85.0°F29.4°C
Dew Point 43.7°F6.5°C 45.1°F7.3°C 34.4°F1.3°C 40.6°F4.8°C
Winds 4.0 mph SE6.4 kmh SE 8.0 mph SE12.9 kmh SE - 3.1 mph 5.0 kmh
Wind Gusts 8.0 mph12.9 kmh 14.0 mph22.5 kmh - -
Humidity 26% 26% 16% 21%
Pressure 29.85 in1010.8 mb 29.85 in1010.8 mb 29.79 in1008.8 mb -
Hour Temp Dew Point Humidity Winds Wind Gusts Pressure Precip Precip Rate Daily Precip Total
05:20 AM 82.0°F27.8°C 43.7°F6.5°C 26% 4.0 mph SE6.4 kmh SE 8.0 mph12.9 kmh 29.85 in1010.8 mb 0.00 in0.0 mm 0.00 in0.0 mm 0.00 in0.0 mm
05:15 AM 82.1°F27.8°C 43.7°F6.5°C 26% 2.0 mph SE3.2 kmh SE 4.0 mph6.4 kmh 29.85 in1010.8 mb 0.00 in0.0 mm 0.00 in0.0 mm 0.00 in0.0 mm
05:10 AM 82.3°F27.9°C 43.9°F6.6°C 26% 3.0 mph SE4.8 kmh SE 7.0 mph11.3 kmh 29.84 in1010.5 mb 0.00 in0.0 mm 0.00 in0.0 mm 0.00 in0.0 mm
05:05 AM 82.4°F28.0°C 44.0°F6.7°C 26% 4.0 mph SE6.4 kmh SE 7.0 mph11.3 kmh 29.85 in1010.8 mb 0.00 in0.0 mm 0.00 in0.0 mm 0.00 in0.0 mm
05:00 AM 82.6°F28.1°C 44.2°F6.8°C 26% 3.0 mph SE4.8 kmh SE 7.0 mph11.3 kmh 29.85 in1010.8 mb 0.00 in0.0 mm 0.00 in0.0 mm 0.00 in0.0 mm
04:55 AM 82.5°F28.1°C 44.1°F6.7°C 26% 4.0 mph ESE6.4 kmh ESE 5.0 mph8.0 kmh 29.84 in1010.5 mb 0.00 in0.0 mm 0.00 in0.0 mm 0.00 in0.0 mm
04:50 AM 82.5°F28.1°C 44.1°F6.7°C 26% 3.0 mph SE4.8 kmh SE 5.0 mph8.0 kmh 29.84 in1010.5 mb 0.00 in0.0 mm 0.00 in0.0 mm 0.00 in0.0 mm
04:45 AM 82.8°F28.2°C 44.3°F6.8°C 26% 2.0 mph SE3.2 kmh SE 6.0 mph9.7 kmh 29.84 in1010.5 mb 0.00 in0.0 mm 0.00 in0.0 mm 0.00 in0.0 mm
04:40 AM 83.0°F28.3°C 44.5°F6.9°C 26% 3.0 mph SE4.8 kmh SE 6.0 mph9.7 kmh 29.84 in1010.5 mb 0.00 in0.0 mm 0.00 in0.0 mm 0.00 in0.0 mm
04:35 AM 83.2°F28.4°C 43.6°F6.4°C 25% 3.0 mph SE4.8 kmh SE 7.0 mph11.3 kmh 29.84 in1010.5 mb 0.00 in0.0 mm 0.00 in0.0 mm 0.00 in0.0 mm
04:30 AM 83.2°F28.4°C 43.6°F6.4°C 25% 3.0 mph SE4.8 kmh SE 9.0 mph14.5 kmh 29.84 in1010.5 mb 0.00 in0.0 mm 0.00 in0.0 mm 0.00 in0.0 mm
04:25 AM 83.5°F28.6°C 43.9°F6.6°C 25% 4.0 mph SE6.4 kmh SE 7.0 mph11.3 kmh 29.84 in1010.5 mb 0.00 in0.0 mm 0.00 in0.0 mm 0.00 in0.0 mm
04:20 AM 83.7°F28.7°C 44.1°F6.7°C 25% 2.0 mph SE3.2 kmh SE 9.0 mph14.5 kmh 29.84 in1010.5 mb 0.00 in0.0 mm 0.00 in0.0 mm 0.00 in0.0 mm
04:15 AM 83.8°F28.8°C 44.1°F6.7°C 25% 4.0 mph SE6.4 kmh SE 9.0 mph14.5 kmh 29.84 in1010.5 mb 0.00 in0.0 mm 0.00 in0.0 mm 0.00 in0.0 mm
04:10 AM 83.8°F28.8°C 44.1°F6.7°C 25% 4.0 mph SSE6.4 kmh SSE 9.0 mph14.5 kmh 29.84 in1010.5 mb 0.00 in0.0 mm 0.00 in0.0 mm 0.00 in0.0 mm
04:05 AM 83.7°F28.7°C 45.1°F7.3°C 26% 3.0 mph SE4.8 kmh SE 11.0 mph17.7 kmh 29.84 in1010.5 mb 0.00 in0.0 mm 0.00 in0.0 mm 0.00 in0.0 mm
04:00 AM 83.7°F28.7°C 44.1°F6.7°C 25% 3.0 mph SE4.8 kmh SE 6.0 mph9.7 kmh 29.83 in1010.2 mb 0.00 in0.0 mm 0.00 in0.0 mm 0.00 in0.0 mm
03:55 AM 84.0°F28.9°C 44.3°F6.8°C 25% 3.0 mph SE4.8 kmh SE 6.0 mph9.7 kmh 29.83 in1010.2 mb 0.00 in0.0 mm 0.00 in0.0 mm 0.00 in0.0 mm
03:50 AM 84.0°F28.9°C 44.3°F6.8°C 25% 6.0 mph SSE9.7 kmh SSE 12.0 mph19.3 kmh 29.83 in1010.2 mb 0.00 in0.0 mm 0.00 in0.0 mm 0.00 in0.0 mm
03:45 AM 83.8°F28.8°C 43.1°F6.2°C 24% 2.0 mph SE3.2 kmh SE 8.0 mph12.9 kmh 29.83 in1010.2 mb 0.00 in0.0 mm 0.00 in0.0 mm 0.00 in0.0 mm
03:40 AM 84.1°F28.9°C 42.2°F5.7°C 23% 3.0 mph SE4.8 kmh SE 8.0 mph12.9 kmh 29.83 in1010.2 mb 0.00 in0.0 mm 0.00 in0.0 mm 0.00 in0.0 mm
03:35 AM 84.4°F29.1°C 41.3°F5.2°C 22% 6.0 mph SSE9.7 kmh SSE 7.0 mph11.3 kmh 29.83 in1010.2 mb 0.00 in0.0 mm 0.00 in0.0 mm 0.00 in0.0 mm
03:30 AM 84.5°F29.2°C 40.2°F4.6°C 21% 3.0 mph SE4.8 kmh SE 8.0 mph12.9 kmh 29.83 in1010.2 mb 0.00 in0.0 mm 0.00 in0.0 mm 0.00 in0.0 mm
03:25 AM 84.8°F29.3°C 40.4°F4.7°C 21% 1.0 mph SE1.6 kmh SE 8.0 mph12.9 kmh 29.83 in1010.2 mb 0.00 in0.0 mm 0.00 in0.0 mm 0.00 in0.0 mm
03:20 AM 85.0°F29.4°C 40.6°F4.8°C 21% 6.0 mph SE9.7 kmh SE 10.0 mph16.1 kmh 29.83 in1010.2 mb 0.00 in0.0 mm 0.00 in0.0 mm 0.00 in0.0 mm
03:15 AM 85.1°F29.5°C 39.4°F4.1°C 20% 7.0 mph SE11.3 kmh SE 10.0 mph16.1 kmh 29.83 in1010.2 mb 0.00 in0.0 mm 0.00 in0.0 mm 0.00 in0.0 mm
03:10 AM 85.2°F29.6°C 38.2°F3.4°C 19% 3.0 mph SE4.8 kmh SE 10.0 mph16.1 kmh 29.82 in1009.8 mb 0.00 in0.0 mm 0.00 in0.0 mm 0.00 in0.0 mm
03:05 AM 85.4°F29.7°C 38.4°F3.6°C 19% 4.0 mph SE6.4 kmh SE 11.0 mph17.7 kmh 29.82 in1009.8 mb 0.00 in0.0 mm 0.00 in0.0 mm 0.00 in0.0 mm
03:00 AM 85.5°F29.7°C 38.5°F3.6°C 19% 8.0 mph ESE12.9 kmh ESE 14.0 mph22.5 kmh 29.82 in1009.8 mb 0.00 in0.0 mm 0.00 in0.0 mm 0.00 in0.0 mm
02:55 AM 85.5°F29.7°C 37.1°F2.8°C 18% 8.0 mph SE12.9 kmh SE 13.0 mph20.9 kmh 29.82 in1009.8 mb 0.00 in0.0 mm 0.00 in0.0 mm 0.00 in0.0 mm
02:50 AM 85.7°F29.8°C 35.8°F2.1°C 17% 5.0 mph ESE8.0 kmh ESE 11.0 mph17.7 kmh 29.82 in1009.8 mb 0.00 in0.0 mm 0.00 in0.0 mm 0.00 in0.0 mm
02:45 AM 85.8°F29.9°C 35.9°F2.2°C 17% 6.0 mph SE9.7 kmh SE 11.0 mph17.7 kmh 29.82 in1009.8 mb 0.00 in0.0 mm 0.00 in0.0 mm 0.00 in0.0 mm
02:40 AM 85.7°F29.8°C 35.8°F2.1°C 17% 4.0 mph SE6.4 kmh SE 9.0 mph14.5 kmh 29.82 in1009.8 mb 0.00 in0.0 mm 0.00 in0.0 mm 0.00 in0.0 mm
02:35 AM 85.9°F29.9°C 34.4°F1.3°C 16% 2.0 mph SE3.2 kmh SE 8.0 mph12.9 kmh 29.82 in1009.8 mb 0.00 in0.0 mm 0.00 in0.0 mm 0.00 in0.0 mm
02:30 AM 86.2°F30.1°C 34.7°F1.5°C 16% 2.0 mph SSE3.2 kmh SSE 6.0 mph9.7 kmh 29.82 in1009.8 mb 0.00 in0.0 mm 0.00 in0.0 mm 0.00 in0.0 mm
02:25 AM 86.2°F30.1°C 34.7°F1.5°C 16% 4.0 mph SE6.4 kmh SE 7.0 mph11.3 kmh 29.81 in1009.5 mb 0.00 in0.0 mm 0.00 in0.0 mm 0.00 in0.0 mm
02:20 AM 86.1°F30.1°C 34.6°F1.4°C 16% 2.0 mph SE3.2 kmh SE 6.0 mph9.7 kmh 29.81 in1009.5 mb 0.00 in0.0 mm 0.00 in0.0 mm 0.00 in0.0 mm
02:15 AM 85.9°F29.9°C 36.0°F2.2°C 17% 4.0 mph SE6.4 kmh SE 5.0 mph8.0 kmh 29.81 in1009.5 mb 0.00 in0.0 mm 0.00 in0.0 mm 0.00 in0.0 mm
02:10 AM 85.9°F29.9°C 36.0°F2.2°C 17% 2.0 mph SE3.2 kmh SE 5.0 mph8.0 kmh 29.81 in1009.5 mb 0.00 in0.0 mm 0.00 in0.0 mm 0.00 in0.0 mm
02:05 AM 85.9°F29.9°C 37.4°F3.0°C 18% 3.0 mph SSE4.8 kmh SSE 5.0 mph8.0 kmh 29.81 in1009.5 mb 0.00 in0.0 mm 0.00 in0.0 mm 0.00 in0.0 mm
02:00 AM 86.0°F30.0°C 37.5°F3.1°C 18% 1.0 mph SE1.6 kmh SE 5.0 mph8.0 kmh 29.81 in1009.5 mb 0.00 in0.0 mm 0.00 in0.0 mm 0.00 in0.0 mm
01:55 AM 86.3°F30.2°C 39.1°F3.9°C 19% 4.0 mph SE6.4 kmh SE 5.0 mph8.0 kmh 29.81 in1009.5 mb 0.00 in0.0 mm 0.00 in0.0 mm 0.00 in0.0 mm
01:50 AM 86.8°F30.4°C 39.5°F4.2°C 19% 2.0 mph SE3.2 kmh SE 5.0 mph8.0 kmh 29.81 in1009.5 mb 0.00 in0.0 mm 0.00 in0.0 mm 0.00 in0.0 mm
01:45 AM 87.1°F30.6°C 39.8°F4.3°C 19% 2.0 mph SSE3.2 kmh SSE 6.0 mph9.7 kmh 29.81 in1009.5 mb 0.00 in0.0 mm 0.00 in0.0 mm 0.00 in0.0 mm
01:40 AM 87.4°F30.8°C 40.0°F4.4°C 19% 3.0 mph SE4.8 kmh SE 4.0 mph6.4 kmh 29.81 in1009.5 mb 0.00 in0.0 mm 0.00 in0.0 mm 0.00 in0.0 mm
01:35 AM 87.7°F30.9°C 40.2°F4.6°C 19% 2.0 mph SE3.2 kmh SE 6.0 mph9.7 kmh 29.81 in1009.5 mb 0.00 in0.0 mm 0.00 in0.0 mm 0.00 in0.0 mm
01:30 AM 87.7°F30.9°C 40.2°F4.6°C 19% 3.0 mph SE4.8 kmh SE 6.0 mph9.7 kmh 29.81 in1009.5 mb 0.00 in0.0 mm 0.00 in0.0 mm 0.00 in0.0 mm
01:25 AM 88.2°F31.2°C 40.7°F4.8°C 19% 3.0 mph SE4.8 kmh SE 8.0 mph12.9 kmh 29.80 in1009.1 mb 0.00 in0.0 mm 0.00 in0.0 mm 0.00 in0.0 mm
01:20 AM 88.1°F31.2°C 40.6°F4.8°C 19% 5.0 mph SE8.0 kmh SE 9.0 mph14.5 kmh 29.80 in1009.1 mb 0.00 in0.0 mm 0.00 in0.0 mm 0.00 in0.0 mm
01:15 AM 87.8°F31.0°C 40.3°F4.6°C 19% 2.0 mph SE3.2 kmh SE 6.0 mph9.7 kmh 29.80 in1009.1 mb 0.00 in0.0 mm 0.00 in0.0 mm 0.00 in0.0 mm
01:10 AM 87.4°F30.8°C 41.3°F5.2°C 20% 3.0 mph SE4.8 kmh SE 7.0 mph11.3 kmh 29.80 in1009.1 mb 0.00 in0.0 mm 0.00 in0.0 mm 0.00 in0.0 mm
01:05 AM 87.0°F30.6°C 41.0°F5.0°C 20% 3.0 mph SE4.8 kmh SE 5.0 mph8.0 kmh 29.80 in1009.1 mb 0.00 in0.0 mm 0.00 in0.0 mm 0.00 in0.0 mm
01:00 AM 86.8°F30.4°C 40.8°F4.9°C 20% 2.0 mph SE3.2 kmh SE 5.0 mph8.0 kmh 29.80 in1009.1 mb 0.00 in0.0 mm 0.00 in0.0 mm 0.00 in0.0 mm
12:55 AM 86.9°F30.5°C 40.9°F4.9°C 20% 3.0 mph SE4.8 kmh SE 7.0 mph11.3 kmh 29.80 in1009.1 mb 0.00 in0.0 mm 0.00 in0.0 mm 0.00 in0.0 mm
12:50 AM 86.9°F30.5°C 40.9°F4.9°C 20% 4.0 mph SE6.4 kmh SE 7.0 mph11.3 kmh 29.80 in1009.1 mb 0.00 in0.0 mm 0.00 in0.0 mm 0.00 in0.0 mm
12:45 AM 86.8°F30.4°C 40.8°F4.9°C 20% 3.0 mph SE4.8 kmh SE 5.0 mph8.0 kmh 29.80 in1009.1 mb 0.00 in0.0 mm 0.00 in0.0 mm 0.00 in0.0 mm
12:40 AM 86.2°F30.1°C 41.6°F5.3°C 21% 2.0 mph SE3.2 kmh SE 4.0 mph6.4 kmh 29.80 in1009.1 mb 0.00 in0.0 mm 0.00 in0.0 mm 0.00 in0.0 mm
12:35 AM 84.9°F29.4°C 40.5°F4.7°C 21% 2.0 mph SE3.2 kmh SE 3.0 mph4.8 kmh 29.80 in1009.1 mb 0.00 in0.0 mm 0.00 in0.0 mm 0.00 in0.0 mm
12:30 AM 83.7°F28.7°C 39.5°F4.2°C 21% 2.0 mph SE3.2 kmh SE 2.0 mph3.2 kmh 29.80 in1009.1 mb 0.00 in0.0 mm 0.00 in0.0 mm 0.00 in0.0 mm
12:25 AM 83.4°F28.6°C 40.5°F4.7°C 22% Calm Calm 1.0 mph1.6 kmh 29.80 in1009.1 mb 0.00 in0.0 mm 0.00 in0.0 mm 0.00 in0.0 mm
12:20 AM 83.8°F28.8°C 39.6°F4.2°C 21% Calm Calm 1.0 mph1.6 kmh 29.80 in1009.1 mb 0.00 in0.0 mm 0.00 in0.0 mm 0.00 in0.0 mm
12:15 AM 83.3°F28.5°C 40.4°F4.7°C 22% Calm Calm 1.0 mph1.6 kmh 29.79 in1008.8 mb 0.00 in0.0 mm 0.00 in0.0 mm 0.00 in0.0 mm
12:10 AM 83.7°F28.7°C 39.5°F4.2°C 21% Calm Calm 1.0 mph1.6 kmh 29.79 in1008.8 mb 0.00 in0.0 mm 0.00 in0.0 mm 0.00 in0.0 mm
12:05 AM 83.8°F28.8°C 39.6°F4.2°C 21% Calm Calm 2.0 mph3.2 kmh 29.79 in1008.8 mb 0.00 in0.0 mm 0.00 in0.0 mm 0.00 in0.0 mm
12:00 AM 83.3°F28.5°C 39.2°F4.0°C 21% Calm Calm -- 29.79 in1008.8 mb 0.00 in0.0 mm 0.00 in0.0 mm 0.00 in0.0 mm